Time;durP1;ratioP1;P1;durP2;ratioP2;P2;SDS_P1;SDS_P2;PMS_P1;PMS_P2;Temp;Humidity;BMP_temperature;BMP_pressure;BME280_temperature;BME280_humidity;BME280_pressure;Samples;Min_cycle;Max_cycle;Signal;HPM_P1;HPM_P2
2022/12/03 00:00:17;;;;;;;66.57;27.20;;;-0.30;99.90;;;;;;5045183;28;20231;-76
2022/12/03 00:03:06;;;;;;;64.03;26.80;;;-0.40;99.90;;;;;;5045444;28;20641;-76
2022/12/03 00:05:54;;;;;;;69.37;28.10;;;-0.60;99.90;;;;;;5040009;28;20212;-76
2022/12/03 00:08:44;;;;;;;74.10;28.30;;;-0.50;99.90;;;;;;5057107;28;20225;-76
2022/12/03 00:11:33;;;;;;;79.87;29.63;;;-0.60;99.90;;;;;;5056970;28;20641;-75
2022/12/03 00:14:21;;;;;;;74.23;29.00;;;-0.50;99.90;;;;;;5059779;28;20225;-76
2022/12/03 00:17:10;;;;;;;76.30;29.37;;;-0.50;99.90;;;;;;5049065;28;21196;-76
2022/12/03 00:19:59;;;;;;;70.03;28.43;;;-0.60;99.90;;;;;;5052198;28;20270;-76
2022/12/03 00:22:47;;;;;;;71.27;29.17;;;-0.60;99.90;;;;;;5048115;28;20223;-76
2022/12/03 00:25:37;;;;;;;69.50;28.93;;;-0.40;99.90;;;;;;5037841;28;20718;-75
2022/12/03 00:28:26;;;;;;;75.47;29.53;;;-0.40;99.90;;;;;;5046922;28;20267;-74
2022/12/03 00:31:15;;;;;;;73.90;29.87;;;-0.40;99.90;;;;;;5031894;28;20232;-75
2022/12/03 00:34:03;;;;;;;74.03;28.93;;;-0.20;99.90;;;;;;5042129;28;20285;-77
2022/12/03 00:36:52;;;;;;;73.07;28.50;;;-0.20;99.90;;;;;;5049401;28;22133;-75
2022/12/03 00:39:40;;;;;;;73.03;29.60;;;0.00;99.90;;;;;;5054733;28;20708;-75
2022/12/03 00:42:30;;;;;;;71.03;28.10;;;0.00;99.90;;;;;;5056714;28;20228;-76
2022/12/03 00:45:19;;;;;;;73.93;29.60;;;0.10;99.90;;;;;;5055225;28;20235;-75
2022/12/03 00:48:07;;;;;;;73.20;29.97;;;-0.30;99.90;;;;;;5053433;28;20292;-75
2022/12/03 00:50:56;;;;;;;72.37;28.73;;;-0.40;99.90;;;;;;5057463;28;20236;-75
2022/12/03 00:53:44;;;;;;;79.67;30.13;;;-0.40;99.90;;;;;;5042536;28;20363;-75
2022/12/03 00:56:33;;;;;;;70.40;28.07;;;-0.40;99.90;;;;;;5040326;28;20208;-74
2022/12/03 00:59:23;;;;;;;71.87;28.97;;;-0.40;99.90;;;;;;5051302;28;21594;-75
2022/12/03 01:02:11;;;;;;;75.60;28.67;;;-0.30;99.90;;;;;;5034421;28;20235;-74
2022/12/03 01:05:00;;;;;;;75.50;29.00;;;-0.20;99.90;;;;;;5048767;28;20227;-74
2022/12/03 01:07:49;;;;;;;72.17;28.80;;;-0.30;99.90;;;;;;5037788;28;20225;-74
2022/12/03 01:10:38;;;;;;;70.30;28.70;;;-0.10;99.90;;;;;;5038118;28;20334;-75
2022/12/03 01:13:26;;;;;;;72.73;29.23;;;-0.30;99.90;;;;;;5042071;28;20221;-75
2022/12/03 01:16:16;;;;;;;71.50;29.27;;;-0.20;99.90;;;;;;5044403;28;20306;-74
2022/12/03 01:19:09;;;;;;;71.97;27.80;;;-0.20;99.90;;;;;;5039390;28;20227;-75
2022/12/03 01:21:57;;;;;;;71.13;29.17;;;-0.10;99.90;;;;;;5042355;28;20644;-75
2022/12/03 01:24:46;;;;;;;62.93;26.40;;;0.00;99.90;;;;;;5024433;28;20336;-74
2022/12/03 01:27:34;;;;;;;72.23;28.87;;;-0.20;99.90;;;;;;5014874;28;20226;-74
2022/12/03 01:30:23;;;;;;;70.90;29.67;;;-0.20;99.90;;;;;;5017091;28;21030;-75
2022/12/03 01:33:12;;;;;;;74.83;29.00;;;-0.10;99.90;;;;;;5023610;28;20225;-73
2022/12/03 01:36:01;;;;;;;69.60;28.23;;;-0.30;99.90;;;;;;5005047;28;20229;-74
2022/12/03 01:38:49;;;;;;;74.83;27.97;;;-0.40;99.90;;;;;;5007707;28;20345;-74
2022/12/03 01:41:38;;;;;;;70.03;27.50;;;-0.40;99.90;;;;;;5024254;28;20636;-73
2022/12/03 01:44:30;;;;;;;67.20;28.30;;;-0.30;99.90;;;;;;5039220;28;20267;-73
2022/12/03 01:47:22;;;;;;;65.20;27.63;;;-0.30;99.90;;;;;;5038257;28;21036;-75
2022/12/03 01:50:19;;;;;;;61.10;25.53;;;-0.20;99.90;;;;;;5045808;28;20233;-73
2022/12/03 01:53:11;;;;;;;69.37;27.67;;;-0.20;99.90;;;;;;5040723;28;20761;-74
2022/12/03 01:55:59;;;;;;;60.33;26.20;;;-0.20;99.90;;;;;;5034468;28;20220;-74
2022/12/03 01:58:48;;;;;;;63.00;26.90;;;-0.50;99.90;;;;;;5044760;28;20232;-73
2022/12/03 02:01:37;;;;;;;70.50;27.80;;;-0.20;99.90;;;;;;5055316;28;20225;-76
2022/12/03 02:04:26;;;;;;;62.90;27.70;;;-0.30;99.90;;;;;;5042529;28;20231;-70
2022/12/03 02:07:25;;;;;;;56.30;24.93;;;-0.30;99.90;;;;;;5041565;28;20221;-74
2022/12/03 02:10:16;;;;;;;67.77;26.30;;;-0.40;99.90;;;;;;5039664;28;20220;-73
2022/12/03 02:13:07;;;;;;;62.47;27.40;;;-0.30;99.90;;;;;;5044260;28;20221;-71
2022/12/03 02:15:56;;;;;;;56.00;25.10;;;-0.30;99.90;;;;;;5056024;28;20225;-73
2022/12/03 02:18:45;;;;;;;60.07;27.57;;;-0.30;99.90;;;;;;5036410;28;20303;-72
2022/12/03 02:21:39;;;;;;;60.63;25.33;;;-0.20;99.90;;;;;;5056824;28;20278;-72
2022/12/03 02:24:37;;;;;;;61.70;26.33;;;-0.30;99.90;;;;;;5041907;28;20224;-75
2022/12/03 02:27:28;;;;;;;47.70;24.13;;;-0.10;99.90;;;;;;5049807;28;20244;-76
2022/12/03 02:30:18;;;;;;;59.60;24.53;;;-0.10;99.90;;;;;;5037334;28;20220;-76
2022/12/03 02:33:07;;;;;;;63.47;25.83;;;-0.20;99.90;;;;;;5045506;28;20241;-74
2022/12/03 02:35:56;;;;;;;53.70;24.93;;;-0.30;99.90;;;;;;5043193;28;20252;-75
2022/12/03 02:38:51;;;;;;;53.87;24.87;;;-0.10;99.90;;;;;;5053789;28;20767;-75
2022/12/03 02:44:47;;;;;;;54.73;24.50;;;-0.20;99.90;;;;;;5046520;28;20232;-75
2022/12/03 02:47:40;;;;;;;52.80;24.83;;;-0.20;99.90;;;;;;5035068;28;20315;-75
2022/12/03 02:50:32;;;;;;;58.73;24.97;;;-0.20;99.90;;;;;;5030269;28;20221;-76
2022/12/03 02:53:24;;;;;;;52.47;24.20;;;-0.20;99.90;;;;;;5048477;28;20270;-75
2022/12/03 02:56:18;;;;;;;52.57;24.30;;;-0.10;99.90;;;;;;5039478;28;20243;-75
2022/12/03 02:59:07;;;;;;;59.03;23.67;;;-0.20;99.90;;;;;;5038346;28;20224;-76
2022/12/03 03:01:57;;;;;;;52.07;24.40;;;-0.10;99.90;;;;;;5039194;28;20370;-76
2022/12/03 03:04:45;;;;;;;48.80;24.23;;;0.00;99.90;;;;;;5041275;28;20229;-74
2022/12/03 03:07:35;;;;;;;47.73;23.57;;;0.00;99.90;;;;;;5052391;28;20307;-73
2022/12/03 03:10:24;;;;;;;50.67;24.27;;;0.00;99.90;;;;;;5043856;28;20604;-73
2022/12/03 03:13:15;;;;;;;50.33;23.53;;;-0.10;99.90;;;;;;5042542;28;20241;-73
2022/12/03 03:16:04;;;;;;;43.97;22.83;;;-0.20;99.90;;;;;;5036766;28;20224;-74
2022/12/03 03:18:54;;;;;;;46.37;24.43;;;-0.30;99.90;;;;;;5046641;28;20236;-72
2022/12/03 03:21:43;;;;;;;49.70;23.50;;;-0.20;99.90;;;;;;5043975;28;21282;-73
2022/12/03 03:24:32;;;;;;;48.00;22.87;;;-0.10;99.90;;;;;;5041713;28;20228;-73
2022/12/03 03:27:21;;;;;;;47.73;24.20;;;-0.10;99.90;;;;;;5042427;28;20801;-74
2022/12/03 03:30:10;;;;;;;45.00;24.20;;;0.00;99.90;;;;;;5053691;28;20217;-74
2022/12/03 03:32:59;;;;;;;48.57;23.00;;;0.10;99.90;;;;;;5044808;28;20228;-73
2022/12/03 03:35:49;;;;;;;53.00;23.77;;;0.20;99.90;;;;;;5039949;28;20291;-72
2022/12/03 03:38:39;;;;;;;46.93;23.53;;;0.20;99.90;;;;;;5042846;28;20221;-73
2022/12/03 03:41:28;;;;;;;52.90;23.60;;;0.20;99.90;;;;;;5047326;28;20225;-69
2022/12/03 03:44:17;;;;;;;49.10;22.57;;;0.10;99.90;;;;;;5039815;28;20237;-74
2022/12/03 03:47:06;;;;;;;49.73;24.13;;;0.20;99.90;;;;;;5045512;28;20221;-74
2022/12/03 03:49:54;;;;;;;43.53;22.50;;;0.10;99.90;;;;;;5050376;28;20225;-74
2022/12/03 03:52:48;;;;;;;46.93;24.17;;;0.00;99.90;;;;;;5035129;28;20237;-74
2022/12/03 03:55:37;;;;;;;46.73;22.97;;;-0.10;99.90;;;;;;5032470;28;20612;-74
2022/12/03 03:58:26;;;;;;;47.13;23.03;;;0.00;99.90;;;;;;5034673;28;20225;-73
2022/12/03 04:01:15;;;;;;;43.90;22.87;;;0.10;99.90;;;;;;5037997;28;20240;-74
2022/12/03 04:04:05;;;;;;;44.73;23.40;;;0.10;99.90;;;;;;5038250;28;20762;-74
2022/12/03 04:06:55;;;;;;;44.40;23.50;;;0.30;99.90;;;;;;5042267;28;20236;-73
2022/12/03 04:09:45;;;;;;;46.07;23.90;;;0.30;99.90;;;;;;5033720;28;20596;-74
2022/12/03 04:15:44;;;;;;;45.03;23.33;;;0.10;99.90;;;;;;5032058;28;20266;-74
2022/12/03 04:18:45;;;;;;;47.43;24.30;;;0.20;99.90;;;;;;5038604;28;20235;-73
2022/12/03 04:24:40;;;;;;;44.53;23.30;;;0.20;99.90;;;;;;5041638;28;20704;-73
2022/12/03 04:30:35;;;;;;;49.87;24.43;;;0.10;99.90;;;;;;5037829;28;20738;-73
2022/12/03 04:36:30;;;;;;;47.27;23.80;;;0.10;99.90;;;;;;5045272;28;20220;-74
2022/12/03 04:39:21;;;;;;;42.87;22.77;;;0.00;99.90;;;;;;5039646;28;20228;-75
2022/12/03 04:42:09;;;;;;;43.27;22.37;;;-0.10;99.90;;;;;;5055838;28;20217;-74
2022/12/03 04:44:59;;;;;;;45.47;22.50;;;-0.10;99.90;;;;;;5042876;28;20229;-74
2022/12/03 04:47:48;;;;;;;46.97;24.60;;;0.00;99.90;;;;;;5055272;28;20386;-73
2022/12/03 04:50:36;;;;;;;45.80;24.17;;;-0.10;99.90;;;;;;5044888;28;20224;-74
2022/12/03 04:53:25;;;;;;;44.90;23.87;;;-0.30;99.90;;;;;;5047207;28;20739;-73
2022/12/03 04:56:14;;;;;;;44.80;22.70;;;-0.30;99.90;;;;;;5039419;28;20260;-76
2022/12/03 04:59:02;;;;;;;49.63;24.60;;;-0.40;99.90;;;;;;5042467;28;20239;-76
2022/12/03 05:01:52;;;;;;;44.03;24.20;;;-0.20;99.90;;;;;;5041020;28;20231;-76
2022/12/03 05:04:41;;;;;;;49.53;24.40;;;-0.20;99.90;;;;;;5055443;28;20221;-75
2022/12/03 05:07:30;;;;;;;44.23;23.17;;;-0.10;99.90;;;;;;5037783;28;20240;-74
2022/12/03 05:10:19;;;;;;;46.73;24.57;;;0.00;99.90;;;;;;5054546;28;20240;-74
2022/12/03 05:13:08;;;;;;;41.77;22.73;;;-0.10;99.90;;;;;;5044727;28;20623;-75
2022/12/03 05:15:57;;;;;;;46.97;23.40;;;0.00;99.90;;;;;;5038568;28;20896;-75
2022/12/03 05:18:47;;;;;;;47.03;23.87;;;0.10;99.90;;;;;;5044008;28;20248;-76
2022/12/03 05:21:36;;;;;;;46.90;23.97;;;0.00;99.90;;;;;;5049118;28;20362;-75
2022/12/03 05:24:24;;;;;;;44.47;25.27;;;-0.10;99.90;;;;;;5042013;28;20281;-75
2022/12/03 05:27:13;;;;;;;44.83;23.07;;;-0.10;99.90;;;;;;5040256;28;20221;-73
2022/12/03 05:30:10;;;;;;;47.57;23.17;;;0.10;99.90;;;;;;5044191;28;20318;-73
2022/12/03 05:32:59;;;;;;;46.27;23.17;;;0.10;99.90;;;;;;5045541;28;20240;-75
2022/12/03 05:35:49;;;;;;;48.03;24.43;;;0.10;99.90;;;;;;5043423;28;20250;-76
2022/12/03 05:38:37;;;;;;;45.50;23.87;;;0.10;99.90;;;;;;5057122;28;20220;-74
2022/12/03 05:44:31;;;;;;;45.93;23.70;;;0.10;99.90;;;;;;5044498;28;20703;-75
2022/12/03 05:47:20;;;;;;;47.70;24.43;;;0.10;99.90;;;;;;5047097;28;20331;-74
2022/12/03 05:50:09;;;;;;;43.10;23.00;;;0.10;99.90;;;;;;5046030;28;20236;-73
2022/12/03 05:52:59;;;;;;;46.30;23.37;;;0.30;99.90;;;;;;5045145;28;20235;-74
2022/12/03 05:55:47;;;;;;;44.13;23.33;;;0.20;99.90;;;;;;5038152;28;20919;-74
2022/12/03 05:58:36;;;;;;;46.33;23.83;;;0.20;99.90;;;;;;5044434;28;20229;-75
2022/12/03 06:01:24;;;;;;;43.67;22.87;;;0.20;99.90;;;;;;5038857;28;20225;-75
2022/12/03 06:04:13;;;;;;;44.50;23.83;;;0.30;99.90;;;;;;5053844;28;20684;-75
2022/12/03 06:07:01;;;;;;;46.07;24.33;;;0.30;99.90;;;;;;5058554;28;20221;-73
2022/12/03 06:09:51;;;;;;;47.53;25.07;;;0.20;99.90;;;;;;5042901;28;20267;-75
2022/12/03 06:12:40;;;;;;;47.90;24.60;;;0.30;99.90;;;;;;5048891;28;20217;-75
2022/12/03 06:15:29;;;;;;;44.27;23.27;;;0.30;99.90;;;;;;5044720;28;20220;-74
2022/12/03 06:18:18;;;;;;;46.87;23.30;;;0.30;99.90;;;;;;5040752;28;20274;-73
2022/12/03 06:21:07;;;;;;;42.33;23.13;;;0.30;99.90;;;;;;5038597;28;20281;-72
2022/12/03 06:23:55;;;;;;;44.70;23.97;;;0.30;99.90;;;;;;5040849;28;20220;-73
2022/12/03 06:26:45;;;;;;;46.13;25.33;;;0.30;99.90;;;;;;5038540;28;20625;-72
2022/12/03 06:29:34;;;;;;;44.70;24.43;;;0.30;99.90;;;;;;5044468;28;20228;-72
2022/12/03 06:32:23;;;;;;;46.43;23.93;;;0.10;99.90;;;;;;5043534;28;20220;-71
2022/12/03 06:35:11;;;;;;;45.97;24.40;;;0.30;99.90;;;;;;5035231;28;20429;-75
2022/12/03 06:38:00;;;;;;;44.43;23.70;;;0.40;99.90;;;;;;5044234;28;20231;-74
2022/12/03 06:40:49;;;;;;;46.00;23.63;;;0.40;99.90;;;;;;5035413;28;20711;-75
2022/12/03 06:43:38;;;;;;;42.97;22.97;;;0.40;99.90;;;;;;5042721;28;20239;-75
2022/12/03 06:46:27;;;;;;;46.13;24.30;;;0.30;99.90;;;;;;5033896;28;20632;-76
2022/12/03 06:49:16;;;;;;;44.67;24.07;;;0.40;99.90;;;;;;5041448;28;20216;-76
2022/12/03 06:52:04;;;;;;;42.93;23.83;;;0.60;99.90;;;;;;5051182;28;20244;-76
2022/12/03 06:54:53;;;;;;;43.13;23.67;;;0.50;99.90;;;;;;5039336;28;20229;-75
2022/12/03 06:57:42;;;;;;;47.13;24.33;;;0.50;99.90;;;;;;5041179;28;20315;-76
2022/12/03 07:00:33;;;;;;;49.87;24.10;;;0.50;99.90;;;;;;5043565;28;20260;-74
2022/12/03 07:03:21;;;;;;;45.27;23.17;;;0.50;99.90;;;;;;5041606;28;21055;-73
2022/12/03 07:06:10;;;;;;;44.13;23.73;;;0.50;99.90;;;;;;5035032;28;20875;-75
2022/12/03 07:08:59;;;;;;;46.33;23.50;;;0.70;99.90;;;;;;5038711;28;20236;-74
2022/12/03 07:11:48;;;;;;;42.87;23.67;;;0.60;99.90;;;;;;5050141;28;20237;-75
2022/12/03 07:14:37;;;;;;;43.97;23.97;;;0.60;99.90;;;;;;5038601;28;20250;-75
2022/12/03 07:17:27;;;;;;;44.50;24.10;;;0.30;99.90;;;;;;5040844;28;20224;-75
2022/12/03 07:20:16;;;;;;;49.50;24.83;;;0.50;99.90;;;;;;5038596;28;20316;-73
2022/12/03 07:23:04;;;;;;;43.57;23.77;;;0.70;99.90;;;;;;5043127;28;20227;-75
2022/12/03 07:25:53;;;;;;;47.53;24.40;;;0.60;99.90;;;;;;5045531;28;20396;-74
2022/12/03 07:28:41;;;;;;;48.07;24.30;;;0.40;99.90;;;;;;5042485;28;20217;-75
2022/12/03 07:31:30;;;;;;;44.37;24.10;;;0.40;99.90;;;;;;5045933;28;20231;-75
2022/12/03 07:34:20;;;;;;;42.70;23.13;;;0.40;99.90;;;;;;5055154;28;20325;-76
2022/12/03 07:37:08;;;;;;;45.47;24.90;;;0.10;99.90;;;;;;5040105;28;20473;-74
2022/12/03 07:39:57;;;;;;;46.17;23.50;;;0.30;99.90;;;;;;5038405;28;20225;-74
2022/12/03 07:42:46;;;;;;;47.97;23.57;;;0.10;99.90;;;;;;5039937;28;20304;-74
2022/12/03 07:45:34;;;;;;;46.07;23.30;;;0.20;99.90;;;;;;5040175;28;20727;-73
2022/12/03 07:48:23;;;;;;;44.70;23.97;;;0.20;99.90;;;;;;5031732;28;20932;-76
2022/12/03 07:51:13;;;;;;;45.57;24.47;;;0.40;99.90;;;;;;5039725;28;20232;-75
2022/12/03 07:54:03;;;;;;;43.10;23.70;;;0.50;99.90;;;;;;5040080;28;20275;-77
2022/12/03 07:56:52;;;;;;;42.73;23.17;;;0.50;99.90;;;;;;5047196;28;20231;-74
2022/12/03 07:59:48;;;;;;;45.50;24.60;;;0.50;99.90;;;;;;5037742;28;20220;-76
2022/12/03 08:02:37;;;;;;;43.40;23.87;;;0.60;99.90;;;;;;5042875;28;20314;-74
2022/12/03 08:05:28;;;;;;;44.47;23.60;;;0.70;99.90;;;;;;5038009;28;20307;-76
2022/12/03 08:08:18;;;;;;;47.57;24.70;;;0.60;99.90;;;;;;5045604;28;20217;-75
2022/12/03 08:11:06;;;;;;;44.53;24.23;;;0.60;99.90;;;;;;5039061;28;20224;-76
2022/12/03 08:13:56;;;;;;;45.73;24.90;;;0.50;99.90;;;;;;5042244;28;20244;-73
2022/12/03 08:16:46;;;;;;;47.00;24.37;;;0.50;99.90;;;;;;5055321;28;20236;-74
2022/12/03 08:19:35;;;;;;;41.27;23.70;;;0.60;99.90;;;;;;5045768;28;20251;-74
2022/12/03 08:22:25;;;;;;;44.73;23.50;;;0.60;99.90;;;;;;5041843;28;20716;-74
2022/12/03 08:25:20;;;;;;;39.90;23.40;;;0.70;99.90;;;;;;5047609;28;20231;-76
2022/12/03 08:31:17;;;;;;;44.97;25.20;;;0.50;99.90;;;;;;4985892;28;20554;-74
2022/12/03 08:34:18;;;;;;;46.27;24.27;;;0.70;99.90;;;;;;4977534;28;20215;-75
2022/12/03 08:37:15;;;;;;;45.00;24.80;;;0.60;99.90;;;;;;4978973;28;20255;-72
2022/12/03 08:40:20;;;;;;;46.03;25.13;;;0.60;99.90;;;;;;4979724;28;20305;-75
2022/12/03 08:43:16;;;;;;;46.37;25.20;;;0.60;99.90;;;;;;4975607;28;20374;-75
2022/12/03 08:46:15;;;;;;;43.53;23.83;;;0.60;99.90;;;;;;4978175;28;20245;-75
2022/12/03 08:49:05;;;;;;;41.43;23.33;;;0.60;99.90;;;;;;4979272;28;20298;-76
2022/12/03 08:51:57;;;;;;;47.80;25.57;;;0.80;99.90;;;;;;4981118;28;21236;-76
2022/12/03 08:54:50;;;;;;;45.53;25.07;;;1.00;99.90;;;;;;4977000;28;20219;-76
2022/12/03 08:57:42;;;;;;;46.37;24.97;;;1.00;99.90;;;;;;4977376;28;20223;-75
2022/12/03 09:00:31;;;;;;;46.00;25.63;;;1.00;99.90;;;;;;4974681;28;20223;-74
2022/12/03 09:03:21;;;;;;;42.70;24.67;;;1.20;99.90;;;;;;4973196;28;20761;-78
2022/12/03 09:06:09;;;;;;;43.77;25.03;;;1.10;99.90;;;;;;4977828;28;20223;-75
2022/12/03 09:08:58;;;;;;;39.43;23.33;;;1.00;99.90;;;;;;4978707;28;20729;-78
2022/12/03 09:11:54;;;;;;;42.33;24.73;;;1.10;99.90;;;;;;4979249;28;20236;-74
2022/12/03 09:14:43;;;;;;;41.87;23.10;;;1.00;99.90;;;;;;4988971;28;20227;-75
2022/12/03 09:17:31;;;;;;;42.70;23.87;;;0.90;99.90;;;;;;4978581;28;20223;-77
2022/12/03 09:20:21;;;;;;;42.57;24.67;;;0.90;99.90;;;;;;4981187;28;20250;-72
2022/12/03 09:23:10;;;;;;;46.33;25.43;;;0.90;99.90;;;;;;4975031;28;20224;-73
2022/12/03 09:25:59;;;;;;;41.90;24.90;;;0.90;99.90;;;;;;4974625;28;20752;-74
2022/12/03 09:28:48;;;;;;;43.40;23.97;;;0.80;99.90;;;;;;4978640;28;20231;-74
2022/12/03 09:31:37;;;;;;;44.57;23.60;;;1.00;99.90;;;;;;4977905;28;20218;-76
2022/12/03 11:12:21;;;;;;;45.73;26.03;;;2.00;99.90;;;;;;5070875;27;20909;-74
2022/12/03 11:15:15;;;;;;;52.77;26.77;;;1.90;99.90;;;;;;5047425;28;20287;-74
2022/12/03 11:18:04;;;;;;;48.43;25.53;;;2.00;99.90;;;;;;5030935;28;20221;-74
2022/12/03 11:21:02;;;;;;;51.60;26.90;;;1.90;99.90;;;;;;5035549;28;20220;-75
2022/12/03 11:24:18;;;;;;;51.67;26.33;;;1.90;99.90;;;;;;5051886;28;20808;-73
2022/12/03 11:27:20;;;;;;;53.07;27.37;;;1.80;99.90;;;;;;5040032;28;20226;-73
2022/12/03 11:30:10;;;;;;;50.20;27.00;;;1.90;99.90;;;;;;5040111;28;20215;-74
2022/12/03 11:33:01;;;;;;;49.83;25.47;;;2.00;99.90;;;;;;5039683;28;20228;-73
2022/12/03 11:36:14;;;;;;;52.87;27.30;;;1.90;99.90;;;;;;5054699;28;20221;-73
2022/12/03 11:39:06;;;;;;;49.03;25.80;;;1.90;99.90;;;;;;5039635;28;20243;-73
2022/12/03 11:42:37;;;;;;;53.30;27.30;;;2.00;99.90;;;;;;5038205;28;20622;-73
2022/12/03 11:45:35;;;;;;;49.13;26.97;;;2.00;99.90;;;;;;5050549;28;20246;-73
2022/12/03 11:48:23;;;;;;;49.10;27.20;;;2.10;99.90;;;;;;5042855;28;20712;-73
2022/12/03 11:51:14;;;;;;;49.40;27.37;;;2.30;99.90;;;;;;5043334;28;20226;-72
2022/12/03 11:54:03;;;;;;;51.10;27.20;;;2.40;99.90;;;;;;5038870;28;20224;-72
2022/12/03 11:56:54;;;;;;;53.03;27.63;;;2.30;99.90;;;;;;5054599;28;20229;-73
2022/12/03 11:59:59;;;;;;;53.47;28.77;;;2.40;99.90;;;;;;5065560;28;20280;-72
2022/12/03 12:02:49;;;;;;;53.00;28.33;;;2.40;99.90;;;;;;5038892;28;20220;-74
2022/12/03 12:05:38;;;;;;;54.23;28.03;;;2.30;99.90;;;;;;5041073;28;20318;-74
2022/12/03 12:08:26;;;;;;;58.03;28.70;;;2.30;99.90;;;;;;5023791;28;20224;-73
2022/12/03 12:11:19;;;;;;;51.83;28.27;;;2.30;99.90;;;;;;5038659;28;20229;-71
2022/12/03 12:14:08;;;;;;;47.53;26.60;;;2.50;99.90;;;;;;5065417;28;20225;-73
2022/12/03 12:17:02;;;;;;;53.27;27.60;;;2.50;99.90;;;;;;5049525;28;20709;-72
2022/12/03 12:19:50;;;;;;;52.57;27.77;;;2.50;99.90;;;;;;5050865;28;20693;-71
2022/12/03 12:22:42;;;;;;;54.47;28.70;;;2.50;99.90;;;;;;5056141;28;21033;-72
2022/12/03 12:25:39;;;;;;;56.03;29.97;;;2.60;99.90;;;;;;5023322;28;20246;-70
2022/12/03 12:28:27;;;;;;;52.83;28.83;;;2.50;99.90;;;;;;5029768;28;20607;-73
2022/12/03 12:31:16;;;;;;;51.83;28.70;;;2.60;99.90;;;;;;5036384;28;20242;-73
2022/12/03 12:34:11;;;;;;;56.27;28.80;;;2.70;99.90;;;;;;5026076;28;20271;-74
2022/12/03 12:37:01;;;;;;;53.57;28.63;;;2.70;99.90;;;;;;5037732;28;20224;-72
2022/12/03 12:39:53;;;;;;;56.47;29.23;;;2.50;99.90;;;;;;5045924;28;20226;-73
2022/12/03 12:42:48;;;;;;;62.43;29.23;;;2.50;99.90;;;;;;5053728;28;20363;-72
2022/12/03 12:45:38;;;;;;;51.90;29.57;;;2.50;99.90;;;;;;5028194;28;20232;-72
2022/12/03 12:48:28;;;;;;;62.40;29.43;;;2.40;99.90;;;;;;5041591;28;20234;-73
2022/12/03 12:51:19;;;;;;;58.03;27.97;;;2.60;99.90;;;;;;5040150;28;20371;-72
2022/12/03 12:54:11;;;;;;;57.47;28.67;;;2.70;99.90;;;;;;5041627;28;20223;-72
2022/12/03 12:56:59;;;;;;;53.93;27.73;;;2.70;99.90;;;;;;5042871;28;20228;-69
2022/12/03 12:59:48;;;;;;;55.40;29.03;;;2.80;99.90;;;;;;5042895;28;20227;-70
2022/12/03 13:02:44;;;;;;;58.30;29.03;;;2.80;99.90;;;;;;5041376;28;20443;-74
2022/12/03 13:05:38;;;;;;;57.80;28.83;;;2.80;99.90;;;;;;5029265;28;20231;-74
2022/12/03 13:08:31;;;;;;;57.23;27.90;;;2.90;99.90;;;;;;5024496;28;20793;-73
2022/12/03 13:11:34;;;;;;;65.10;29.67;;;2.60;99.90;;;;;;5024930;28;20262;-72
2022/12/03 13:14:24;;;;;;;58.50;29.40;;;2.80;99.90;;;;;;5054990;28;20228;-73
2022/12/03 13:17:15;;;;;;;55.70;27.50;;;2.80;99.90;;;;;;5052753;28;20230;-73
2022/12/03 13:20:17;;;;;;;53.90;27.77;;;2.80;99.90;;;;;;5057437;28;20228;-72
2022/12/03 13:23:22;;;;;;;61.43;29.23;;;2.70;99.90;;;;;;5039773;28;20308;-73
2022/12/03 13:26:22;;;;;;;57.90;29.73;;;2.80;99.90;;;;;;5025025;28;20812;-71
2022/12/03 13:29:27;;;;;;;50.43;28.07;;;2.80;99.90;;;;;;5038594;28;20641;-73
2022/12/03 13:32:19;;;;;;;54.57;29.30;;;2.80;99.90;;;;;;5053989;28;20697;-73
2022/12/03 13:35:16;;;;;;;55.33;27.67;;;2.80;99.90;;;;;;5037716;28;20778;-72
2022/12/03 13:38:15;;;;;;;55.40;29.67;;;2.80;99.90;;;;;;5041775;28;20232;-74
2022/12/03 13:41:03;;;;;;;56.90;29.37;;;2.80;99.90;;;;;;5037325;28;20228;-77
2022/12/03 15:20:02;;;;;;;77.07;33.87;;;2.60;99.90;;;;;;5011052;28;20521;-72
2022/12/03 15:22:50;;;;;;;74.10;33.50;;;2.70;99.90;;;;;;5032238;28;20234;-73
2022/12/03 15:25:39;;;;;;;80.63;34.20;;;2.70;99.90;;;;;;5009701;28;20237;-74
2022/12/03 15:28:28;;;;;;;71.00;33.53;;;2.80;99.90;;;;;;5020696;28;20215;-74
2022/12/03 15:31:16;;;;;;;75.83;33.70;;;2.80;99.90;;;;;;5011125;28;20447;-74
2022/12/03 15:34:05;;;;;;;73.63;33.93;;;2.90;99.90;;;;;;5005082;28;20218;-74
2022/12/03 15:36:55;;;;;;;79.30;34.77;;;2.90;99.90;;;;;;5012851;28;20232;-74
2022/12/03 15:39:44;;;;;;;71.00;34.57;;;2.90;99.90;;;;;;5021209;28;20252;-73
2022/12/03 15:42:36;;;;;;;70.53;33.20;;;2.90;99.90;;;;;;5024459;28;20232;-73
2022/12/03 15:45:24;;;;;;;75.47;34.80;;;2.80;99.90;;;;;;5035153;28;20230;-73
2022/12/03 15:48:13;;;;;;;78.70;35.03;;;2.80;99.90;;;;;;5030904;28;20231;-74
2022/12/03 15:51:02;;;;;;;70.30;33.53;;;2.80;99.90;;;;;;5031254;28;20237;-72
2022/12/03 15:53:52;;;;;;;77.30;34.47;;;3.00;99.90;;;;;;5032365;28;20231;-74
2022/12/03 15:56:40;;;;;;;76.97;34.53;;;2.90;99.90;;;;;;5026130;28;20604;-72
2022/12/03 15:59:29;;;;;;;71.30;33.53;;;3.00;99.90;;;;;;5043389;28;20229;-74
2022/12/03 16:02:18;;;;;;;80.20;35.90;;;2.80;99.90;;;;;;5037262;28;20242;-73
2022/12/03 16:05:09;;;;;;;82.77;36.13;;;2.70;99.90;;;;;;5028095;28;20817;-74
2022/12/03 16:07:58;;;;;;;70.70;33.17;;;2.70;99.90;;;;;;5033767;28;20231;-72
2022/12/03 16:10:48;;;;;;;76.90;35.90;;;2.70;99.90;;;;;;5025209;28;20229;-72
2022/12/03 16:13:37;;;;;;;73.93;34.17;;;2.70;99.90;;;;;;5026813;28;20235;-73
2022/12/03 16:16:25;;;;;;;78.93;35.00;;;2.80;99.90;;;;;;5029017;28;20712;-73
2022/12/03 16:19:14;;;;;;;78.87;35.13;;;2.70;99.90;;;;;;5022464;28;20228;-73
2022/12/03 16:22:03;;;;;;;79.63;35.60;;;2.80;99.90;;;;;;5034642;28;20228;-72
2022/12/03 16:24:51;;;;;;;81.07;36.60;;;2.90;99.90;;;;;;5027099;28;20246;-75
2022/12/03 16:27:41;;;;;;;85.63;36.37;;;2.70;99.90;;;;;;5024578;28;20244;-75
2022/12/03 16:30:30;;;;;;;78.83;37.23;;;2.80;99.90;;;;;;5014314;28;20224;-74
2022/12/03 16:33:19;;;;;;;81.27;36.70;;;2.70;99.90;;;;;;5014249;28;20224;-75
2022/12/03 16:36:15;;;;;;;88.00;38.27;;;2.70;99.90;;;;;;5000020;28;20224;-74
2022/12/03 16:39:04;;;;;;;87.63;38.13;;;2.80;99.90;;;;;;5014481;28;20229;-74
2022/12/03 16:41:52;;;;;;;90.63;36.70;;;2.70;99.90;;;;;;5017224;28;20233;-73
2022/12/03 16:45:20;;;;;;;86.13;38.27;;;2.70;99.90;;;;;;5003408;28;20949;-72
2022/12/03 16:48:02;;;;;;;87.90;40.07;;;2.90;99.90;;;;;;4998531;28;20240;-72
2022/12/03 16:50:51;;;;;;;88.50;40.43;;;2.90;99.90;;;;;;5012967;28;20419;-72
2022/12/03 16:53:39;;;;;;;85.80;37.93;;;2.90;99.90;;;;;;5014292;28;20594;-76
2022/12/03 16:56:28;;;;;;;90.70;38.47;;;2.90;99.90;;;;;;5000416;28;20305;-72
2022/12/03 16:59:17;;;;;;;90.97;39.87;;;3.00;99.90;;;;;;4998031;28;20234;-71
2022/12/03 17:02:07;;;;;;;86.43;38.27;;;3.00;99.90;;;;;;5000522;28;20709;-72
2022/12/03 17:04:56;;;;;;;93.63;41.70;;;2.90;99.90;;;;;;5002727;28;20360;-74
2022/12/03 17:07:45;;;;;;;92.40;40.43;;;3.00;99.90;;;;;;5022729;22;20377;-86
2022/12/03 17:11:50;;;;;;;98.75;46.38;;;2.80;99.90;;;;;;5111524;27;20407;-86
2022/12/03 17:14:40;;;;;;;98.77;41.53;;;3.80;99.90;;;;;;5106238;27;20260;-86
2022/12/03 17:18:35;;;;;;;95.07;42.17;;;2.80;99.90;;;;;;5056049;28;20542;-73
2022/12/03 17:21:23;;;;;;;95.90;41.03;;;2.80;99.90;;;;;;5073075;28;20229;-73
2022/12/03 17:24:12;;;;;;;100.53;42.53;;;3.00;99.90;;;;;;5079402;28;21051;-73
2022/12/03 17:27:01;;;;;;;101.67;41.77;;;2.90;99.90;;;;;;5074962;28;20592;-71
2022/12/03 17:29:49;;;;;;;106.13;43.13;;;2.90;99.90;;;;;;5070309;28;20216;-73
2022/12/03 17:32:38;;;;;;;99.40;41.93;;;2.80;99.90;;;;;;5076158;28;20219;-72
2022/12/03 17:35:28;;;;;;;105.83;43.00;;;2.70;99.90;;;;;;5073503;28;20246;-73
2022/12/03 17:38:17;;;;;;;109.60;43.93;;;2.70;99.90;;;;;;5070304;28;20233;-72
2022/12/03 17:41:06;;;;;;;103.73;42.13;;;2.80;99.90;;;;;;5068357;28;20253;-73
2022/12/03 17:43:54;;;;;;;109.23;44.07;;;2.90;99.90;;;;;;5074544;28;20247;-73
2022/12/03 17:46:43;;;;;;;112.27;45.40;;;2.80;99.90;;;;;;5068231;28;20226;-73
2022/12/03 17:49:31;;;;;;;104.00;43.67;;;2.70;99.90;;;;;;5070821;28;20846;-72
2022/12/03 17:52:21;;;;;;;112.30;45.67;;;2.80;99.90;;;;;;5079064;28;21001;-72
2022/12/03 17:55:10;;;;;;;116.57;44.73;;;2.80;99.90;;;;;;5070223;28;20700;-71
2022/12/03 17:58:08;;;;;;;116.97;44.00;;;2.80;99.90;;;;;;5068227;28;20233;-72
2022/12/03 18:00:57;;;;;;;116.70;44.80;;;2.90;99.90;;;;;;5066229;28;20226;-72
2022/12/03 18:03:50;;;;;;;117.00;44.40;;;2.90;99.90;;;;;;5070494;28;20226;-71
2022/12/03 18:06:39;;;;;;;112.77;44.17;;;2.90;99.90;;;;;;5061822;28;20214;-71
2022/12/03 18:09:29;;;;;;;109.63;43.40;;;3.00;99.90;;;;;;5068495;28;20243;-72